Aviation Digital Data Service (ADDS)

Output produced by METARs form (0359 UTC 23 September 2017)
found at http://www.aviationweather.gov/adds/metars/
 
KMSP 230353Z 19016G23KT 10SM BKN160 29/21 A2984 RMK AO2 SLP099 T02940206
KRNH 230335Z AUTO 18014G19KT 10SM CLR 27/18 A2987 RMK AO2 T02700176